sensor_id;sensor_type;location;lat;lon;timestamp;pressure;altitude;pressure_sealevel;temperature;humidity
71976;BME280;68326;52.124;5.424;2023-04-06T00:00:25;101868.81;;;2.54;81.37
71976;BME280;68326;52.124;5.424;2023-04-06T00:02:52;101871.38;;;2.54;80.14
71976;BME280;68326;52.124;5.424;2023-04-06T00:05:19;101869.66;;;2.55;80.93
71976;BME280;68326;52.124;5.424;2023-04-06T00:07:46;101872.25;;;2.58;81.38
71976;BME280;68326;52.124;5.424;2023-04-06T00:10:13;101866.25;;;2.57;81.53
71976;BME280;68326;52.124;5.424;2023-04-06T00:12:39;101868.81;;;2.57;80.99
71976;BME280;68326;52.124;5.424;2023-04-06T00:15:06;101861.97;;;2.53;80.84
71976;BME280;68326;52.124;5.424;2023-04-06T00:17:33;101860.25;;;2.48;80.61
71976;BME280;68326;52.124;5.424;2023-04-06T00:19:59;101852.53;;;2.40;81.04
71976;BME280;68326;52.124;5.424;2023-04-06T00:22:26;101859.41;;;2.35;81.43
71976;BME280;68326;52.124;5.424;2023-04-06T00:24:52;101857.69;;;2.37;81.47
71976;BME280;68326;52.124;5.424;2023-04-06T00:27:19;101849.13;;;2.36;81.12
71976;BME280;68326;52.124;5.424;2023-04-06T00:29:45;101852.56;;;2.32;80.88
71976;BME280;68326;52.124;5.424;2023-04-06T00:32:11;101848.25;;;2.36;82.09
71976;BME280;68326;52.124;5.424;2023-04-06T00:34:38;101847.41;;;2.38;81.05
71976;BME280;68326;52.124;5.424;2023-04-06T00:37:05;101842.25;;;2.40;80.74
71976;BME280;68326;52.124;5.424;2023-04-06T00:39:31;101839.69;;;2.35;81.18
71976;BME280;68326;52.124;5.424;2023-04-06T00:41:58;101836.28;;;2.32;80.56
71976;BME280;68326;52.124;5.424;2023-04-06T00:44:24;101834.56;;;2.32;81.04
71976;BME280;68326;52.124;5.424;2023-04-06T00:46:51;101826.88;;;2.32;81.28
71976;BME280;68326;52.124;5.424;2023-04-06T00:49:17;101825.16;;;2.27;80.45
71976;BME280;68326;52.124;5.424;2023-04-06T00:51:44;101822.59;;;2.23;81.49
71976;BME280;68326;52.124;5.424;2023-04-06T00:54:10;101819.16;;;2.24;81.46
71976;BME280;68326;52.124;5.424;2023-04-06T00:56:37;101822.56;;;2.20;81.39
71976;BME280;68326;52.124;5.424;2023-04-06T00:59:03;101815.72;;;2.21;81.19
71976;BME280;68326;52.124;5.424;2023-04-06T01:01:30;101814.88;;;2.19;81.78
71976;BME280;68326;52.124;5.424;2023-04-06T01:03:58;101814.03;;;2.21;81.46
71976;BME280;68326;52.124;5.424;2023-04-06T01:06:25;101809.75;;;2.17;81.50
71976;BME280;68326;52.124;5.424;2023-04-06T01:08:51;101804.63;;;2.17;81.65
71976;BME280;68326;52.124;5.424;2023-04-06T01:11:18;101798.63;;;2.20;81.94
71976;BME280;68326;52.124;5.424;2023-04-06T01:13:44;101804.59;;;2.19;81.36
71976;BME280;68326;52.124;5.424;2023-04-06T01:16:11;101801.19;;;2.23;81.70
71976;BME280;68326;52.124;5.424;2023-04-06T01:18:38;101794.34;;;2.27;83.02
71976;BME280;68326;52.124;5.424;2023-04-06T01:21:04;101795.22;;;2.32;83.37
71976;BME280;68326;52.124;5.424;2023-04-06T01:23:31;101794.31;;;2.31;82.21
71976;BME280;68326;52.124;5.424;2023-04-06T01:25:57;101791.75;;;2.33;82.43
71976;BME280;68326;52.124;5.424;2023-04-06T01:28:24;101788.34;;;2.28;82.08
71976;BME280;68326;52.124;5.424;2023-04-06T01:30:50;101787.50;;;2.24;83.01
71976;BME280;68326;52.124;5.424;2023-04-06T01:33:17;101783.22;;;2.26;82.80
71976;BME280;68326;52.124;5.424;2023-04-06T01:35:43;101782.34;;;2.24;82.76
71976;BME280;68326;52.124;5.424;2023-04-06T01:38:10;101777.22;;;2.24;82.47
71976;BME280;68326;52.124;5.424;2023-04-06T01:40:37;101773.81;;;2.22;83.57
71976;BME280;68326;52.124;5.424;2023-04-06T01:43:03;101764.38;;;2.22;83.67
71976;BME280;68326;52.124;5.424;2023-04-06T01:45:29;101771.22;;;2.22;83.57
71976;BME280;68326;52.124;5.424;2023-04-06T01:47:56;101766.09;;;2.27;82.99
71976;BME280;68326;52.124;5.424;2023-04-06T01:50:22;101762.66;;;2.32;83.02
71976;BME280;68326;52.124;5.424;2023-04-06T01:52:49;101766.94;;;2.35;82.92
71976;BME280;68326;52.124;5.424;2023-04-06T01:55:16;101764.34;;;2.39;83.39
71976;BME280;68326;52.124;5.424;2023-04-06T01:57:42;101755.81;;;2.40;83.05
71976;BME280;68326;52.124;5.424;2023-04-06T02:00:09;101756.66;;;2.42;83.34
71976;BME280;68326;52.124;5.424;2023-04-06T02:02:36;101752.38;;;2.44;83.37
71976;BME280;68326;52.124;5.424;2023-04-06T02:05:02;101748.94;;;2.45;82.80
71976;BME280;68326;52.124;5.424;2023-04-06T02:07:29;101748.94;;;2.45;82.49
71976;BME280;68326;52.124;5.424;2023-04-06T02:09:56;101746.34;;;2.50;82.40
71976;BME280;68326;52.124;5.424;2023-04-06T02:12:22;101741.19;;;2.56;82.38
71976;BME280;68326;52.124;5.424;2023-04-06T02:14:50;101739.47;;;2.63;82.23
71976;BME280;68326;52.124;5.424;2023-04-06T02:17:16;101740.31;;;2.71;81.97
71976;BME280;68326;52.124;5.424;2023-04-06T02:19:43;101736.03;;;2.76;81.21
71976;BME280;68326;52.124;5.424;2023-04-06T02:22:09;101726.56;;;2.83;82.06
71976;BME280;68326;52.124;5.424;2023-04-06T02:24:36;101724.81;;;2.86;82.31
71976;BME280;68326;52.124;5.424;2023-04-06T02:27:03;101729.09;;;2.94;82.40
71976;BME280;68326;52.124;5.424;2023-04-06T02:29:29;101727.34;;;3.00;81.56
71976;BME280;68326;52.124;5.424;2023-04-06T02:31:55;101721.31;;;3.01;81.65
71976;BME280;68326;52.124;5.424;2023-04-06T02:34:22;101723.03;;;3.02;82.87
71976;BME280;68326;52.124;5.424;2023-04-06T02:36:48;101724.75;;;3.05;82.62
71976;BME280;68326;52.124;5.424;2023-04-06T02:39:15;101722.13;;;3.08;82.72
71976;BME280;68326;52.124;5.424;2023-04-06T02:41:41;101716.13;;;3.15;83.90
71976;BME280;68326;52.124;5.424;2023-04-06T02:44:08;101716.09;;;3.20;81.68
71976;BME280;68326;52.124;5.424;2023-04-06T02:46:35;101715.22;;;3.25;82.46
71976;BME280;68326;52.124;5.424;2023-04-06T02:49:02;101709.19;;;3.25;81.64
71976;BME280;68326;52.124;5.424;2023-04-06T02:51:28;101698.03;;;3.29;83.08
71976;BME280;68326;52.124;5.424;2023-04-06T02:53:55;101697.13;;;3.36;82.03
71976;BME280;68326;52.124;5.424;2023-04-06T02:56:21;101695.38;;;3.44;82.35
71976;BME280;68326;52.124;5.424;2023-04-06T02:58:48;101686.72;;;3.50;80.29
71976;BME280;68326;52.124;5.424;2023-04-06T03:01:14;101694.41;;;3.56;80.79
71976;BME280;68326;52.124;5.424;2023-04-06T03:03:41;101682.34;;;3.63;80.88
71976;BME280;68326;52.124;5.424;2023-04-06T03:06:08;101686.66;;;3.61;80.26
71976;BME280;68326;52.124;5.424;2023-04-06T03:08:35;101676.44;;;3.53;80.25
71976;BME280;68326;52.124;5.424;2023-04-06T03:11:01;101680.75;;;3.48;82.00
71976;BME280;68326;52.124;5.424;2023-04-06T03:13:28;101675.59;;;3.48;82.08
71976;BME280;68326;52.124;5.424;2023-04-06T03:15:54;101683.28;;;3.53;81.73
71976;BME280;68326;52.124;5.424;2023-04-06T03:18:23;101683.25;;;3.56;81.31
71976;BME280;68326;52.124;5.424;2023-04-06T03:20:50;101676.38;;;3.58;80.50
71976;BME280;68326;52.124;5.424;2023-04-06T03:23:17;101677.22;;;3.60;78.49
71976;BME280;68326;52.124;5.424;2023-04-06T03:25:43;101672.09;;;3.60;78.55
71976;BME280;68326;52.124;5.424;2023-04-06T03:28:10;101676.34;;;3.64;79.38
71976;BME280;68326;52.124;5.424;2023-04-06T03:30:36;101670.31;;;3.65;78.26
71976;BME280;68326;52.124;5.424;2023-04-06T03:33:03;101665.16;;;3.65;78.71
71976;BME280;68326;52.124;5.424;2023-04-06T03:35:30;101666.88;;;3.66;79.62
71976;BME280;68326;52.124;5.424;2023-04-06T03:37:56;101661.75;;;3.64;78.23
71976;BME280;68326;52.124;5.424;2023-04-06T03:40:23;101664.31;;;3.64;78.43
71976;BME280;68326;52.124;5.424;2023-04-06T03:42:50;101660.84;;;3.67;80.15
71976;BME280;68326;52.124;5.424;2023-04-06T03:45:16;101663.38;;;3.75;79.40
71976;BME280;68326;52.124;5.424;2023-04-06T03:47:43;101658.13;;;3.85;79.42
71976;BME280;68326;52.124;5.424;2023-04-06T03:50:10;101659.81;;;3.90;79.42
71976;BME280;68326;52.124;5.424;2023-04-06T03:52:36;101657.19;;;3.96;77.41
71976;BME280;68326;52.124;5.424;2023-04-06T03:55:03;101651.97;;;4.02;77.25
71976;BME280;68326;52.124;5.424;2023-04-06T03:57:30;101651.03;;;4.09;76.09
71976;BME280;68326;52.124;5.424;2023-04-06T03:59:56;101649.28;;;4.13;74.01
71976;BME280;68326;52.124;5.424;2023-04-06T04:02:22;101650.97;;;4.15;75.51
71976;BME280;68326;52.124;5.424;2023-04-06T04:04:49;101650.97;;;4.17;75.52
71976;BME280;68326;52.124;5.424;2023-04-06T04:07:16;101653.53;;;4.15;76.58
71976;BME280;68326;52.124;5.424;2023-04-06T04:09:42;101648.44;;;4.11;76.04
71976;BME280;68326;52.124;5.424;2023-04-06T04:12:09;101645.94;;;4.03;76.42
71976;BME280;68326;52.124;5.424;2023-04-06T04:14:35;101647.72;;;3.96;76.94
71976;BME280;68326;52.124;5.424;2023-04-06T04:17:02;101646.88;;;3.94;76.64
71976;BME280;68326;52.124;5.424;2023-04-06T04:19:28;101647.78;;;3.93;77.18
71976;BME280;68326;52.124;5.424;2023-04-06T04:21:55;101646.09;;;3.89;77.22
71976;BME280;68326;52.124;5.424;2023-04-06T04:24:21;101647.84;;;3.85;77.50
71976;BME280;68326;52.124;5.424;2023-04-06T04:26:47;101641.84;;;3.80;77.70
71976;BME280;68326;52.124;5.424;2023-04-06T04:29:14;101648.78;;;3.78;77.82
71976;BME280;68326;52.124;5.424;2023-04-06T04:31:41;101648.72;;;3.80;77.17
71976;BME280;68326;52.124;5.424;2023-04-06T04:34:08;101645.25;;;3.84;78.47
71976;BME280;68326;52.124;5.424;2023-04-06T04:36:34;101643.53;;;3.89;78.99
71976;BME280;68326;52.124;5.424;2023-04-06T04:39:01;101644.38;;;3.88;79.50
71976;BME280;68326;52.124;5.424;2023-04-06T04:41:27;101649.56;;;3.85;78.12
71976;BME280;68326;52.124;5.424;2023-04-06T04:43:54;101647.84;;;3.85;78.40
71976;BME280;68326;52.124;5.424;2023-04-06T04:46:20;101643.53;;;3.84;78.14
71976;BME280;68326;52.124;5.424;2023-04-06T04:48:47;101642.69;;;3.82;76.58
71976;BME280;68326;52.124;5.424;2023-04-06T04:51:13;101652.13;;;3.85;76.55
71976;BME280;68326;52.124;5.424;2023-04-06T04:53:40;101643.53;;;3.87;75.68
71976;BME280;68326;52.124;5.424;2023-04-06T04:56:06;101645.22;;;3.88;74.62
71976;BME280;68326;52.124;5.424;2023-04-06T04:58:33;101647.78;;;3.92;74.26
71976;BME280;68326;52.124;5.424;2023-04-06T05:00:59;101638.31;;;3.92;74.58
71976;BME280;68326;52.124;5.424;2023-04-06T05:03:26;101637.44;;;3.95;74.81
71976;BME280;68326;52.124;5.424;2023-04-06T05:05:53;101641.69;;;4.00;73.87
71976;BME280;68326;52.124;5.424;2023-04-06T05:08:19;101633.06;;;4.03;72.51
71976;BME280;68326;52.124;5.424;2023-04-06T05:10:47;101637.31;;;4.07;72.90
71976;BME280;68326;52.124;5.424;2023-04-06T05:13:14;101633.84;;;4.11;72.80
71976;BME280;68326;52.124;5.424;2023-04-06T05:15:41;101642.41;;;4.13;73.50
71976;BME280;68326;52.124;5.424;2023-04-06T05:18:08;101631.22;;;4.16;72.31
71976;BME280;68326;52.124;5.424;2023-04-06T05:20:35;101629.47;;;4.16;72.57
71976;BME280;68326;52.124;5.424;2023-04-06T05:23:02;101635.50;;;4.17;72.77
71976;BME280;68326;52.124;5.424;2023-04-06T05:25:28;101628.56;;;4.22;71.83
71976;BME280;68326;52.124;5.424;2023-04-06T05:27:55;101626.81;;;4.25;72.67
71976;BME280;68326;52.124;5.424;2023-04-06T05:30:21;101626.75;;;4.30;71.88
71976;BME280;68326;52.124;5.424;2023-04-06T05:32:48;101625.00;;;4.34;72.07
71976;BME280;68326;52.124;5.424;2023-04-06T05:35:14;101622.38;;;4.35;71.89
71976;BME280;68326;52.124;5.424;2023-04-06T05:37:41;101626.66;;;4.38;71.89
71976;BME280;68326;52.124;5.424;2023-04-06T05:40:08;101620.63;;;4.40;73.02
71976;BME280;68326;52.124;5.424;2023-04-06T05:42:38;101623.13;;;4.46;72.36
71976;BME280;68326;52.124;5.424;2023-04-06T05:45:09;101625.66;;;4.51;73.23
71976;BME280;68326;52.124;5.424;2023-04-06T05:47:37;101618.69;;;4.59;72.55
71976;BME280;68326;52.124;5.424;2023-04-06T05:50:04;101622.03;;;4.63;72.09
71976;BME280;68326;52.124;5.424;2023-04-06T05:52:31;101617.72;;;4.65;71.78
71976;BME280;68326;52.124;5.424;2023-04-06T05:54:57;101621.13;;;4.68;73.08
71976;BME280;68326;52.124;5.424;2023-04-06T05:57:24;101614.22;;;4.72;72.77
71976;BME280;68326;52.124;5.424;2023-04-06T05:59:50;101620.22;;;4.73;72.38
71976;BME280;68326;52.124;5.424;2023-04-06T06:02:16;101621.88;;;4.77;72.73
71976;BME280;68326;52.124;5.424;2023-04-06T06:04:43;101613.22;;;4.81;71.42
71976;BME280;68326;52.124;5.424;2023-04-06T06:07:09;101613.09;;;4.88;72.20
71976;BME280;68326;52.124;5.424;2023-04-06T06:09:36;101613.94;;;4.90;72.88
71976;BME280;68326;52.124;5.424;2023-04-06T06:12:02;101614.66;;;4.99;72.95
71976;BME280;68326;52.124;5.424;2023-04-06T06:14:29;101614.59;;;5.03;72.26
71976;BME280;68326;52.124;5.424;2023-04-06T06:16:55;101612.81;;;5.08;72.23
71976;BME280;68326;52.124;5.424;2023-04-06T06:19:22;101612.75;;;5.13;72.16
71976;BME280;68326;52.124;5.424;2023-04-06T06:21:48;101611.84;;;5.16;73.08
71976;BME280;68326;52.124;5.424;2023-04-06T06:24:15;101610.09;;;5.18;72.58
71976;BME280;68326;52.124;5.424;2023-04-06T06:26:41;101610.84;;;5.24;72.53
71976;BME280;68326;52.124;5.424;2023-04-06T06:29:09;101611.63;;;5.29;72.90
71976;BME280;68326;52.124;5.424;2023-04-06T06:31:35;101608.97;;;5.36;71.54
71976;BME280;68326;52.124;5.424;2023-04-06T06:34:02;101611.50;;;5.37;71.47
71976;BME280;68326;52.124;5.424;2023-04-06T06:36:29;101613.22;;;5.38;69.64
71976;BME280;68326;52.124;5.424;2023-04-06T06:38:57;101609.75;;;5.39;69.97
71976;BME280;68326;52.124;5.424;2023-04-06T06:41:25;101610.53;;;5.44;71.12
71976;BME280;68326;52.124;5.424;2023-04-06T06:43:52;101610.44;;;5.50;69.24
71976;BME280;68326;52.124;5.424;2023-04-06T06:46:20;101611.09;;;5.60;70.32
71976;BME280;68326;52.124;5.424;2023-04-06T06:48:46;101611.75;;;5.73;71.11
71976;BME280;68326;52.124;5.424;2023-04-06T06:51:13;101609.78;;;5.87;71.04
71976;BME280;68326;52.124;5.424;2023-04-06T06:53:39;101609.66;;;5.93;70.07
71976;BME280;68326;52.124;5.424;2023-04-06T06:56:06;101609.53;;;6.01;69.31
71976;BME280;68326;52.124;5.424;2023-04-06T06:58:33;101610.09;;;6.17;69.84
71976;BME280;68326;52.124;5.424;2023-04-06T07:00:59;101610.69;;;6.31;71.56
71976;BME280;68326;52.124;5.424;2023-04-06T07:03:26;101613.00;;;6.44;70.15
71976;BME280;68326;52.124;5.424;2023-04-06T07:05:53;101604.25;;;6.49;69.83
71976;BME280;68326;52.124;5.424;2023-04-06T07:08:21;101611.88;;;6.57;69.85
71976;BME280;68326;52.124;5.424;2023-04-06T07:10:49;101608.38;;;6.58;67.21
71976;BME280;68326;52.124;5.424;2023-04-06T07:13:17;101605.81;;;6.58;66.00
71976;BME280;68326;52.124;5.424;2023-04-06T07:15:48;101598.00;;;6.61;67.12
71976;BME280;68326;52.124;5.424;2023-04-06T07:18:16;101600.41;;;6.69;66.10
71976;BME280;68326;52.124;5.424;2023-04-06T07:20:42;101596.88;;;6.71;66.81
71976;BME280;68326;52.124;5.424;2023-04-06T07:23:09;101599.53;;;6.70;65.33
71976;BME280;68326;52.124;5.424;2023-04-06T07:25:35;101588.25;;;6.72;66.44
71976;BME280;68326;52.124;5.424;2023-04-06T07:28:02;101587.41;;;6.72;64.34
71976;BME280;68326;52.124;5.424;2023-04-06T07:30:29;101593.50;;;6.69;65.71
71976;BME280;68326;52.124;5.424;2023-04-06T07:32:57;101588.38;;;6.68;65.01
71976;BME280;68326;52.124;5.424;2023-04-06T07:35:26;101591.69;;;6.73;65.58
71976;BME280;68326;52.124;5.424;2023-04-06T07:37:56;101592.53;;;6.73;65.45
71976;BME280;68326;52.124;5.424;2023-04-06T07:40:22;101590.72;;;6.77;65.67
71976;BME280;68326;52.124;5.424;2023-04-06T07:42:49;101595.69;;;6.86;65.48
71976;BME280;68326;52.124;5.424;2023-04-06T07:45:16;101593.09;;;6.86;65.07
71976;BME280;68326;52.124;5.424;2023-04-06T07:47:42;101590.38;;;6.92;66.33
71976;BME280;68326;52.124;5.424;2023-04-06T07:50:09;101588.66;;;6.93;65.31
71976;BME280;68326;52.124;5.424;2023-04-06T07:52:36;101591.19;;;6.94;64.06
71976;BME280;68326;52.124;5.424;2023-04-06T07:55:04;101592.09;;;6.93;65.61
71976;BME280;68326;52.124;5.424;2023-04-06T07:57:30;101585.13;;;6.97;65.26
71976;BME280;68326;52.124;5.424;2023-04-06T07:59:57;101590.19;;;7.02;64.94
71976;BME280;68326;52.124;5.424;2023-04-06T08:02:23;101584.06;;;7.04;64.29
71976;BME280;68326;52.124;5.424;2023-04-06T08:04:50;101591.59;;;7.15;63.98
71976;BME280;68326;52.124;5.424;2023-04-06T08:07:16;101596.66;;;7.20;64.18
71976;BME280;68326;52.124;5.424;2023-04-06T08:09:43;101590.50;;;7.24;64.48
71976;BME280;68326;52.124;5.424;2023-04-06T08:12:09;101589.69;;;7.22;63.00
71976;BME280;68326;52.124;5.424;2023-04-06T08:14:36;101593.84;;;7.29;63.41
71976;BME280;68326;52.124;5.424;2023-04-06T08:17:02;101596.22;;;7.37;65.80
71976;BME280;68326;52.124;5.424;2023-04-06T08:19:32;101595.38;;;7.36;64.80
71976;BME280;68326;52.124;5.424;2023-04-06T08:21:58;101589.41;;;7.34;63.07
71976;BME280;68326;52.124;5.424;2023-04-06T08:24:25;101591.03;;;7.38;64.74
71976;BME280;68326;52.124;5.424;2023-04-06T08:26:52;101591.81;;;7.42;64.20
71976;BME280;68326;52.124;5.424;2023-04-06T08:29:19;101588.13;;;7.50;65.26
71976;BME280;68326;52.124;5.424;2023-04-06T08:31:45;101581.06;;;7.55;64.64
71976;BME280;68326;52.124;5.424;2023-04-06T08:34:12;101593.88;;;7.62;65.55
71976;BME280;68326;52.124;5.424;2023-04-06T08:36:40;101589.41;;;7.67;65.07
71976;BME280;68326;52.124;5.424;2023-04-06T08:39:07;101578.88;;;7.73;64.79
71976;BME280;68326;52.124;5.424;2023-04-06T08:41:34;101581.34;;;7.78;65.18
71976;BME280;68326;52.124;5.424;2023-04-06T08:44:01;101573.47;;;7.82;65.78
71976;BME280;68326;52.124;5.424;2023-04-06T08:46:29;101574.19;;;7.87;65.60
71976;BME280;68326;52.124;5.424;2023-04-06T08:48:58;101581.00;;;7.91;64.96
71976;BME280;68326;52.124;5.424;2023-04-06T08:51:26;101573.81;;;8.01;64.86
71976;BME280;68326;52.124;5.424;2023-04-06T08:53:54;101578.06;;;8.04;65.81
71976;BME280;68326;52.124;5.424;2023-04-06T08:56:26;101580.50;;;8.10;63.74
71976;BME280;68326;52.124;5.424;2023-04-06T08:58:54;101581.31;;;8.12;65.34
71976;BME280;68326;52.124;5.424;2023-04-06T09:01:25;101577.63;;;8.19;63.57
71976;BME280;68326;52.124;5.424;2023-04-06T09:03:55;101581.69;;;8.28;63.79
71976;BME280;68326;52.124;5.424;2023-04-06T09:06:23;101585.28;;;8.24;63.54
71976;BME280;68326;52.124;5.424;2023-04-06T09:08:49;101575.66;;;8.27;64.26
71976;BME280;68326;52.124;5.424;2023-04-06T09:11:16;101590.00;;;8.41;64.11
71976;BME280;68326;52.124;5.424;2023-04-06T09:13:51;101596.34;;;8.60;64.66
71976;BME280;68326;52.124;5.424;2023-04-06T09:16:18;101588.53;;;8.62;61.48
71976;BME280;68326;52.124;5.424;2023-04-06T09:18:45;101590.53;;;8.52;64.40
71976;BME280;68326;52.124;5.424;2023-04-06T09:21:12;101582.63;;;8.56;64.33
71976;BME280;68326;52.124;5.424;2023-04-06T09:23:39;101586.75;;;8.62;62.85
71976;BME280;68326;52.124;5.424;2023-04-06T09:26:17;101578.09;;;8.63;62.90
71976;BME280;68326;52.124;5.424;2023-04-06T09:28:48;101583.75;;;8.76;62.72
71976;BME280;68326;52.124;5.424;2023-04-06T09:31:22;101583.63;;;8.81;63.01
71976;BME280;68326;52.124;5.424;2023-04-06T09:33:50;101576.72;;;8.80;62.31
71976;BME280;68326;52.124;5.424;2023-04-06T09:36:18;101584.75;;;8.72;63.42
71976;BME280;68326;52.124;5.424;2023-04-06T09:39:02;101574.06;;;8.81;64.16
71976;BME280;68326;52.124;5.424;2023-04-06T09:41:35;101584.22;;;8.89;63.60
71976;BME280;68326;52.124;5.424;2023-04-06T09:44:09;101579.78;;;8.92;64.10
71976;BME280;68326;52.124;5.424;2023-04-06T09:46:43;101587.31;;;9.00;64.56
71976;BME280;68326;52.124;5.424;2023-04-06T09:49:27;101586.34;;;9.04;62.29
71976;BME280;68326;52.124;5.424;2023-04-06T09:51:57;101581.91;;;9.08;62.86
71976;BME280;68326;52.124;5.424;2023-04-06T09:54:28;101588.78;;;9.09;62.67
71976;BME280;68326;52.124;5.424;2023-04-06T09:59:31;101588.53;;;9.16;64.16
71976;BME280;68326;52.124;5.424;2023-04-06T10:02:05;101590.97;;;9.21;64.16
71976;BME280;68326;52.124;5.424;2023-04-06T10:04:41;101578.63;;;9.28;64.79
71976;BME280;68326;52.124;5.424;2023-04-06T10:07:10;101586.34;;;9.31;65.17
71976;BME280;68326;52.124;5.424;2023-04-06T10:09:45;101579.56;;;9.27;65.56
71976;BME280;68326;52.124;5.424;2023-04-06T10:12:12;101587.22;;;9.30;65.59
71976;BME280;68326;52.124;5.424;2023-04-06T10:14:39;101587.38;;;9.25;65.66
71976;BME280;68326;52.124;5.424;2023-04-06T10:17:07;101590.50;;;9.35;65.71
71976;BME280;68326;52.124;5.424;2023-04-06T10:19:46;101592.09;;;9.39;66.54
71976;BME280;68326;52.124;5.424;2023-04-06T10:22:26;101595.81;;;9.32;66.46
71976;BME280;68326;52.124;5.424;2023-04-06T10:24:55;101593.88;;;9.38;68.05
71976;BME280;68326;52.124;5.424;2023-04-06T10:27:29;101594.22;;;9.54;67.51
71976;BME280;68326;52.124;5.424;2023-04-06T10:30:05;101589.03;;;9.54;67.76
71976;BME280;68326;52.124;5.424;2023-04-06T10:32:38;101595.31;;;9.47;67.62
71976;BME280;68326;52.124;5.424;2023-04-06T10:35:09;101588.81;;;9.34;67.18
71976;BME280;68326;52.124;5.424;2023-04-06T10:38:12;101593.53;;;9.23;68.01
71976;BME280;68326;52.124;5.424;2023-04-06T10:40:41;101585.00;;;9.19;70.53
71976;BME280;68326;52.124;5.424;2023-04-06T10:43:18;101583.38;;;9.15;70.11
71976;BME280;68326;52.124;5.424;2023-04-06T10:45:54;101592.97;;;9.13;71.83
71976;BME280;68326;52.124;5.424;2023-04-06T10:48:22;101589.78;;;9.05;73.31
71976;BME280;68326;52.124;5.424;2023-04-06T10:50:51;101594.28;;;9.00;75.15
71976;BME280;68326;52.124;5.424;2023-04-06T10:53:22;101583.31;;;8.90;73.96
71976;BME280;68326;52.124;5.424;2023-04-06T10:55:51;101580.88;;;8.85;76.70
71976;BME280;68326;52.124;5.424;2023-04-06T10:58:18;101581.53;;;8.92;76.57
71976;BME280;68326;52.124;5.424;2023-04-06T11:00:47;101588.63;;;8.87;77.53
71976;BME280;68326;52.124;5.424;2023-04-06T11:03:17;101582.03;;;8.75;76.83
71976;BME280;68326;52.124;5.424;2023-04-06T11:05:45;101573.53;;;8.71;77.82
71976;BME280;68326;52.124;5.424;2023-04-06T11:08:32;101584.09;;;8.65;77.82
71976;BME280;68326;52.124;5.424;2023-04-06T11:11:06;101582.66;;;8.55;78.31
71976;BME280;68326;52.124;5.424;2023-04-06T11:13:45;101574.97;;;8.52;79.71
71976;BME280;68326;52.124;5.424;2023-04-06T11:16:22;101574.97;;;8.52;80.02
71976;BME280;68326;52.124;5.424;2023-04-06T11:18:54;101570.91;;;8.43;80.39
71976;BME280;68326;52.124;5.424;2023-04-06T11:21:42;101576.16;;;8.40;80.37
71976;BME280;68326;52.124;5.424;2023-04-06T11:26:54;101573.28;;;8.51;80.68
71976;BME280;68326;52.124;5.424;2023-04-06T11:29:25;101570.75;;;8.48;81.31
71976;BME280;68326;52.124;5.424;2023-04-06T11:32:01;101572.47;;;8.49;82.51
71976;BME280;68326;52.124;5.424;2023-04-06T11:34:29;101561.91;;;8.55;84.69
71976;BME280;68326;52.124;5.424;2023-04-06T11:37:01;101559.94;;;8.63;84.59
71976;BME280;68326;52.124;5.424;2023-04-06T11:39:29;101555.88;;;8.54;83.36
71976;BME280;68326;52.124;5.424;2023-04-06T11:42:00;101561.13;;;8.53;83.62
71976;BME280;68326;52.124;5.424;2023-04-06T11:47:05;101546.34;;;8.55;83.42
71976;BME280;68326;52.124;5.424;2023-04-06T11:49:32;101553.50;;;8.47;82.22
71976;BME280;68326;52.124;5.424;2023-04-06T11:52:00;101545.72;;;8.47;83.81
71976;BME280;68326;52.124;5.424;2023-04-06T11:54:37;101544.63;;;8.54;82.08
71976;BME280;68326;52.124;5.424;2023-04-06T11:57:04;101540.31;;;8.54;82.93
71976;BME280;68326;52.124;5.424;2023-04-06T11:59:32;101536.97;;;8.51;84.47
71976;BME280;68326;52.124;5.424;2023-04-06T12:01:59;101537.59;;;8.59;86.20
71976;BME280;68326;52.124;5.424;2023-04-06T12:04:25;101549.78;;;8.55;84.59
71976;BME280;68326;52.124;5.424;2023-04-06T12:06:52;101526.72;;;8.46;84.12
71976;BME280;68326;52.124;5.424;2023-04-06T12:09:18;101537.94;;;8.47;86.05
71976;BME280;68326;52.124;5.424;2023-04-06T12:11:45;101532.66;;;8.50;85.93
71976;BME280;68326;52.124;5.424;2023-04-06T12:14:12;101530.88;;;8.52;84.85
71976;BME280;68326;52.124;5.424;2023-04-06T12:16:39;101526.88;;;8.40;84.50
71976;BME280;68326;52.124;5.424;2023-04-06T12:19:06;101523.66;;;8.32;85.44
71976;BME280;68326;52.124;5.424;2023-04-06T12:21:34;101528.81;;;8.33;87.00
71976;BME280;68326;52.124;5.424;2023-04-06T12:24:03;101524.38;;;8.37;87.32
71976;BME280;68326;52.124;5.424;2023-04-06T12:26:30;101522.50;;;8.44;86.55
71976;BME280;68326;52.124;5.424;2023-04-06T12:28:57;101525.34;;;8.33;85.28
71976;BME280;68326;52.124;5.424;2023-04-06T12:31:29;101521.22;;;8.27;86.38
71976;BME280;68326;52.124;5.424;2023-04-06T12:33:55;101516.09;;;8.24;86.40
71976;BME280;68326;52.124;5.424;2023-04-06T12:36:22;101525.63;;;8.24;87.06
71976;BME280;68326;52.124;5.424;2023-04-06T12:38:48;101514.13;;;8.32;86.98
71976;BME280;68326;52.124;5.424;2023-04-06T12:41:15;101515.88;;;8.32;86.38
71976;BME280;68326;52.124;5.424;2023-04-06T12:43:42;101510.00;;;8.27;86.68
71976;BME280;68326;52.124;5.424;2023-04-06T12:46:10;101512.78;;;8.21;86.51
71976;BME280;68326;52.124;5.424;2023-04-06T12:48:37;101516.25;;;8.20;87.45
71976;BME280;68326;52.124;5.424;2023-04-06T12:51:05;101510.19;;;8.21;86.81
71976;BME280;68326;52.124;5.424;2023-04-06T12:53:32;101511.03;;;8.21;88.53
71976;BME280;68326;52.124;5.424;2023-04-06T12:56:01;101507.59;;;8.21;88.54
71976;BME280;68326;52.124;5.424;2023-04-06T12:58:28;101500.66;;;8.21;87.59
71976;BME280;68326;52.124;5.424;2023-04-06T13:00:57;101497.97;;;8.24;86.34
71976;BME280;68326;52.124;5.424;2023-04-06T13:03:24;101494.34;;;8.30;88.86
71976;BME280;68326;52.124;5.424;2023-04-06T13:05:50;101499.72;;;8.24;87.09
71976;BME280;68326;52.124;5.424;2023-04-06T13:08:18;101485.09;;;8.21;87.38
71976;BME280;68326;52.124;5.424;2023-04-06T13:10:50;101492.88;;;8.21;88.14